sensor_id;sensor_type;location;lat;lon;timestamp;pressure;altitude;pressure_sealevel;temperature;humidity
69879;BME280;57161;43.136;24.706;2023-01-01T00:01:31;100634.34;;;6.27;74.00
69879;BME280;57161;43.136;24.706;2023-01-01T00:03:58;100632.06;;;6.25;73.66
69879;BME280;57161;43.136;24.706;2023-01-01T00:06:24;100591.19;;;5.96;74.09
69879;BME280;57161;43.136;24.706;2023-01-01T00:08:50;100646.00;;;6.31;74.17
69879;BME280;57161;43.136;24.706;2023-01-01T00:11:38;100639.06;;;6.21;74.83
69879;BME280;57161;43.136;24.706;2023-01-01T00:14:04;100651.09;;;6.32;74.79
69879;BME280;57161;43.136;24.706;2023-01-01T00:16:29;100658.16;;;6.33;74.24
69879;BME280;57161;43.136;24.706;2023-01-01T00:18:55;100619.06;;;6.02;74.00
69879;BME280;57161;43.136;24.706;2023-01-01T00:21:20;100612.91;;;5.98;73.81
69879;BME280;57161;43.136;24.706;2023-01-01T00:23:46;100662.59;;;6.25;74.08
69879;BME280;57161;43.136;24.706;2023-01-01T00:26:13;100660.28;;;6.24;74.31
69879;BME280;57161;43.136;24.706;2023-01-01T00:28:40;100625.97;;;5.83;74.68
69879;BME280;57161;43.136;24.706;2023-01-01T00:31:10;100661.06;;;6.10;74.44
69879;BME280;57161;43.136;24.706;2023-01-01T00:33:36;100658.28;;;6.10;74.29
69879;BME280;57161;43.136;24.706;2023-01-01T00:36:09;100641.81;;;6.06;74.30
69879;BME280;57161;43.136;24.706;2023-01-01T00:38:35;100616.72;;;5.86;74.29
69879;BME280;57161;43.136;24.706;2023-01-01T00:41:01;100653.28;;;6.14;74.22
69879;BME280;57161;43.136;24.706;2023-01-01T00:43:27;100652.72;;;6.10;74.29
69879;BME280;57161;43.136;24.706;2023-01-01T00:45:53;100659.88;;;6.01;74.45
69879;BME280;57161;43.136;24.706;2023-01-01T00:48:18;100639.81;;;5.92;74.49
69879;BME280;57161;43.136;24.706;2023-01-01T00:50:46;100645.06;;;5.90;74.62
69879;BME280;57161;43.136;24.706;2023-01-01T00:53:12;100642.28;;;5.90;74.67
69879;BME280;57161;43.136;24.706;2023-01-01T00:55:41;100644.59;;;5.91;74.65
69879;BME280;57161;43.136;24.706;2023-01-01T00:58:08;100594.78;;;5.58;74.80
69879;BME280;57161;43.136;24.706;2023-01-01T01:00:34;100628.59;;;5.86;74.82
69879;BME280;57161;43.136;24.706;2023-01-01T01:03:02;100612.22;;;5.73;75.02
69879;BME280;57161;43.136;24.706;2023-01-01T01:05:27;100622.91;;;5.81;75.04
69879;BME280;57161;43.136;24.706;2023-01-01T01:07:53;100629.00;;;5.94;74.84
69879;BME280;57161;43.136;24.706;2023-01-01T01:10:19;100621.16;;;5.92;74.82
69879;BME280;57161;43.136;24.706;2023-01-01T01:12:46;100590.97;;;5.70;74.84
69879;BME280;57161;43.136;24.706;2023-01-01T01:15:13;100613.06;;;5.80;75.08
69879;BME280;57161;43.136;24.706;2023-01-01T01:17:40;100617.94;;;5.85;75.11
69879;BME280;57161;43.136;24.706;2023-01-01T01:20:07;100605.22;;;5.78;75.11
69879;BME280;57161;43.136;24.706;2023-01-01T01:22:32;100562.06;;;5.48;74.73
69879;BME280;57161;43.136;24.706;2023-01-01T01:24:59;100628.59;;;5.86;74.76
69879;BME280;57161;43.136;24.706;2023-01-01T01:27:25;100599.66;;;5.63;74.78
69879;BME280;57161;43.136;24.706;2023-01-01T01:29:50;100630.00;;;5.82;75.05
69879;BME280;57161;43.136;24.706;2023-01-01T01:32:19;100596.38;;;5.50;75.03
69879;BME280;57161;43.136;24.706;2023-01-01T01:34:45;100634.00;;;5.66;75.24
69879;BME280;57161;43.136;24.706;2023-01-01T01:37:11;100630.75;;;5.67;75.35
69879;BME280;57161;43.136;24.706;2023-01-01T01:39:37;100633.03;;;5.69;75.44
69879;BME280;57161;43.136;24.706;2023-01-01T01:42:03;100632.66;;;5.61;75.51
69879;BME280;57161;43.136;24.706;2023-01-01T01:49:50;100634.38;;;5.59;75.92
69879;BME280;57161;43.136;24.706;2023-01-01T01:52:18;100639.16;;;5.58;75.90
69879;BME280;57161;43.136;24.706;2023-01-01T01:54:44;100629.59;;;5.59;75.76
69879;BME280;57161;43.136;24.706;2023-01-01T01:57:11;100628.06;;;5.58;75.68
69879;BME280;57161;43.136;24.706;2023-01-01T01:59:41;100640.75;;;5.50;75.96
69879;BME280;57161;43.136;24.706;2023-01-01T02:02:24;100615.31;;;5.37;76.45
69879;BME280;57161;43.136;24.706;2023-01-01T02:04:51;100637.41;;;5.46;76.10
69879;BME280;57161;43.136;24.706;2023-01-01T02:07:17;100604.28;;;5.28;76.04
69879;BME280;57161;43.136;24.706;2023-01-01T02:09:43;100631.56;;;5.44;75.77
69879;BME280;57161;43.136;24.706;2023-01-01T02:12:09;100637.03;;;5.53;76.02
69879;BME280;57161;43.136;24.706;2023-01-01T02:14:35;100607.91;;;5.34;76.02
69879;BME280;57161;43.136;24.706;2023-01-01T02:17:06;100633.19;;;5.51;76.34
69879;BME280;57161;43.136;24.706;2023-01-01T02:19:43;100591.72;;;5.18;76.16
69879;BME280;57161;43.136;24.706;2023-01-01T02:25:21;100631.56;;;5.44;75.92
69879;BME280;57161;43.136;24.706;2023-01-01T02:30:58;100640.63;;;5.45;76.09
69879;BME280;57161;43.136;24.706;2023-01-01T02:33:25;100630.38;;;5.36;75.94
69879;BME280;57161;43.136;24.706;2023-01-01T02:35:55;100631.81;;;5.31;76.02
69879;BME280;57161;43.136;24.706;2023-01-01T02:38:35;100606.81;;;5.17;76.10
69879;BME280;57161;43.136;24.706;2023-01-01T02:41:04;100633.91;;;5.36;76.19
69879;BME280;57161;43.136;24.706;2023-01-01T02:43:31;100620.72;;;5.31;75.95
69879;BME280;57161;43.136;24.706;2023-01-01T02:45:56;100632.09;;;5.33;76.45
69879;BME280;57161;43.136;24.706;2023-01-01T02:48:42;100647.00;;;5.36;76.60
69879;BME280;57161;43.136;24.706;2023-01-01T02:54:08;100637.34;;;5.31;76.90
69879;BME280;57161;43.136;24.706;2023-01-01T03:05:16;100639.28;;;5.40;76.50
69879;BME280;57161;43.136;24.706;2023-01-01T03:10:37;100615.25;;;5.22;76.40
69879;BME280;57161;43.136;24.706;2023-01-01T03:14:20;100580.00;;;4.99;76.78
69879;BME280;57161;43.136;24.706;2023-01-01T03:16:28;100632.28;;;5.30;76.63
69879;BME280;57161;43.136;24.706;2023-01-01T03:21:58;100630.28;;;5.30;76.58
69879;BME280;57161;43.136;24.706;2023-01-01T03:24:39;100628.75;;;5.29;76.59
69879;BME280;57161;43.136;24.706;2023-01-01T03:27:31;100631.56;;;5.20;76.67
69879;BME280;57161;43.136;24.706;2023-01-01T03:30:00;100626.03;;;5.20;76.57
69879;BME280;57161;43.136;24.706;2023-01-01T03:32:34;100622.31;;;5.23;76.60
69879;BME280;57161;43.136;24.706;2023-01-01T03:35:21;100617.13;;;5.16;76.98
69879;BME280;57161;43.136;24.706;2023-01-01T03:37:50;100630.22;;;5.16;76.76
69879;BME280;57161;43.136;24.706;2023-01-01T03:40:20;100625.72;;;5.18;76.41
69879;BME280;57161;43.136;24.706;2023-01-01T03:42:54;100579.66;;;4.82;76.76
69879;BME280;57161;43.136;24.706;2023-01-01T03:45:30;100628.56;;;5.09;77.09
69879;BME280;57161;43.136;24.706;2023-01-01T03:47:58;100628.09;;;5.10;77.13
69879;BME280;57161;43.136;24.706;2023-01-01T03:50:36;100595.31;;;4.85;77.09
69879;BME280;57161;43.136;24.706;2023-01-01T03:53:40;100599.13;;;4.88;77.35
69879;BME280;57161;43.136;24.706;2023-01-01T03:56:26;100558.19;;;4.68;77.18
69879;BME280;57161;43.136;24.706;2023-01-01T03:59:48;100619.22;;;5.06;76.79
69879;BME280;57161;43.136;24.706;2023-01-01T04:02:19;100605.91;;;4.87;77.21
69879;BME280;57161;43.136;24.706;2023-01-01T04:04:48;100621.84;;;5.01;77.71
69879;BME280;57161;43.136;24.706;2023-01-01T04:07:13;100615.06;;;5.02;77.47
69879;BME280;57161;43.136;24.706;2023-01-01T04:09:41;100612.47;;;4.98;77.47
69879;BME280;57161;43.136;24.706;2023-01-01T04:12:09;100608.75;;;4.77;77.59
69879;BME280;57161;43.136;24.706;2023-01-01T04:14:38;100622.09;;;4.88;77.68
69879;BME280;57161;43.136;24.706;2023-01-01T04:17:06;100592.78;;;4.72;77.55
69879;BME280;57161;43.136;24.706;2023-01-01T04:19:32;100627.47;;;4.92;77.40
69879;BME280;57161;43.136;24.706;2023-01-01T04:21:58;100623.25;;;4.96;77.19
69879;BME280;57161;43.136;24.706;2023-01-01T04:24:23;100638.25;;;4.90;77.38
69879;BME280;57161;43.136;24.706;2023-01-01T04:26:50;100595.00;;;4.59;77.16
69879;BME280;57161;43.136;24.706;2023-01-01T04:29:16;100640.56;;;4.82;77.46
69879;BME280;57161;43.136;24.706;2023-01-01T04:31:41;100639.50;;;4.79;77.99
69879;BME280;57161;43.136;24.706;2023-01-01T04:34:07;100608.84;;;4.59;78.03
69879;BME280;57161;43.136;24.706;2023-01-01T04:36:33;100615.53;;;4.76;77.68
69879;BME280;57161;43.136;24.706;2023-01-01T04:38:59;100629.31;;;4.86;77.80
69879;BME280;57161;43.136;24.706;2023-01-01T04:41:24;100636.38;;;4.87;77.77
69879;BME280;57161;43.136;24.706;2023-01-01T04:43:50;100637.97;;;4.78;77.97
69879;BME280;57161;43.136;24.706;2023-01-01T04:46:16;100601.34;;;4.50;78.12
69879;BME280;57161;43.136;24.706;2023-01-01T04:48:42;100642.28;;;4.79;78.07
69879;BME280;57161;43.136;24.706;2023-01-01T04:51:09;100641.81;;;4.81;78.06
69879;BME280;57161;43.136;24.706;2023-01-01T04:53:35;100618.69;;;4.60;78.41
69879;BME280;57161;43.136;24.706;2023-01-01T04:56:09;100646.59;;;4.80;78.12
69879;BME280;57161;43.136;24.706;2023-01-01T04:58:36;100637.09;;;4.72;78.06
69879;BME280;57161;43.136;24.706;2023-01-01T05:01:02;100648.22;;;4.87;78.21
69879;BME280;57161;43.136;24.706;2023-01-01T05:03:29;100648.56;;;4.89;78.09
69879;BME280;57161;43.136;24.706;2023-01-01T05:06:14;100633.19;;;4.88;77.96
69879;BME280;57161;43.136;24.706;2023-01-01T05:08:42;100639.47;;;4.89;78.33
69879;BME280;57161;43.136;24.706;2023-01-01T05:11:14;100647.91;;;4.94;78.80
69879;BME280;57161;43.136;24.706;2023-01-01T05:13:41;100634.16;;;5.00;78.54
69879;BME280;57161;43.136;24.706;2023-01-01T05:16:10;100646.47;;;4.99;77.94
69879;BME280;57161;43.136;24.706;2023-01-01T05:18:36;100644.84;;;4.92;77.61
69879;BME280;57161;43.136;24.706;2023-01-01T05:21:08;100656.50;;;4.96;77.40
69879;BME280;57161;43.136;24.706;2023-01-01T05:23:33;100644.47;;;4.99;77.25
69879;BME280;57161;43.136;24.706;2023-01-01T05:26:00;100627.97;;;4.81;77.29
69879;BME280;57161;43.136;24.706;2023-01-01T05:28:32;100648.56;;;4.89;77.51
69879;BME280;57161;43.136;24.706;2023-01-01T05:30:57;100648.97;;;4.97;77.24
69879;BME280;57161;43.136;24.706;2023-01-01T05:33:22;100633.97;;;4.79;77.43
69879;BME280;57161;43.136;24.706;2023-01-01T05:35:53;100632.78;;;4.71;77.55
69879;BME280;57161;43.136;24.706;2023-01-01T05:38:19;100645.53;;;4.78;78.07
69879;BME280;57161;43.136;24.706;2023-01-01T05:40:44;100653.06;;;4.77;78.04
69879;BME280;57161;43.136;24.706;2023-01-01T05:43:10;100636.47;;;4.68;78.22
69879;BME280;57161;43.136;24.706;2023-01-01T05:45:35;100629.25;;;4.71;78.27
69879;BME280;57161;43.136;24.706;2023-01-01T05:48:01;100632.91;;;4.77;78.27
69879;BME280;57161;43.136;24.706;2023-01-01T05:50:28;100634.53;;;4.93;78.22
69879;BME280;57161;43.136;24.706;2023-01-01T05:52:54;100624.88;;;4.88;77.93
69879;BME280;57161;43.136;24.706;2023-01-01T05:55:19;100643.06;;;5.04;77.67
69879;BME280;57161;43.136;24.706;2023-01-01T05:57:45;100630.25;;;4.82;77.54
69879;BME280;57161;43.136;24.706;2023-01-01T06:00:11;100638.25;;;4.90;77.68
69879;BME280;57161;43.136;24.706;2023-01-01T06:02:36;100627.03;;;4.84;77.10
69879;BME280;57161;43.136;24.706;2023-01-01T06:05:02;100591.19;;;4.57;76.97
69879;BME280;57161;43.136;24.706;2023-01-01T06:07:27;100591.97;;;4.48;77.24
69879;BME280;57161;43.136;24.706;2023-01-01T06:09:53;100614.34;;;4.68;77.53
69879;BME280;57161;43.136;24.706;2023-01-01T06:12:19;100604.09;;;4.60;77.52
69879;BME280;57161;43.136;24.706;2023-01-01T06:14:44;100543.75;;;4.07;77.48
69879;BME280;57161;43.136;24.706;2023-01-01T06:17:09;100659.16;;;4.91;77.97
69879;BME280;57161;43.136;24.706;2023-01-01T06:19:35;100625.75;;;4.61;77.57
69879;BME280;57161;43.136;24.706;2023-01-01T06:22:00;100580.19;;;4.38;77.27
69879;BME280;57161;43.136;24.706;2023-01-01T06:24:26;100626.25;;;4.83;77.52
69879;BME280;57161;43.136;24.706;2023-01-01T06:26:51;100668.72;;;5.13;77.73
69879;BME280;57161;43.136;24.706;2023-01-01T06:29:17;100657.34;;;5.11;77.62
69879;BME280;57161;43.136;24.706;2023-01-01T06:31:42;100641.19;;;5.10;77.37
69879;BME280;57161;43.136;24.706;2023-01-01T06:34:08;100660.00;;;5.30;76.84
69879;BME280;57161;43.136;24.706;2023-01-01T06:36:33;100637.59;;;5.19;76.64
69879;BME280;57161;43.136;24.706;2023-01-01T06:38:59;100680.59;;;5.53;76.35
69879;BME280;57161;43.136;24.706;2023-01-01T06:41:26;100680.59;;;5.53;75.63
69879;BME280;57161;43.136;24.706;2023-01-01T06:43:54;100685.38;;;5.52;75.69
69879;BME280;57161;43.136;24.706;2023-01-01T06:46:33;100683.69;;;5.55;75.53
69879;BME280;57161;43.136;24.706;2023-01-01T06:49:09;100673.38;;;5.55;75.47
69879;BME280;57161;43.136;24.706;2023-01-01T06:51:42;100682.56;;;5.61;74.95
69879;BME280;57161;43.136;24.706;2023-01-01T06:54:08;100669.84;;;5.55;74.86
69879;BME280;57161;43.136;24.706;2023-01-01T06:56:34;100678.78;;;5.73;74.33
69879;BME280;57161;43.136;24.706;2023-01-01T06:59:00;100678.00;;;5.73;74.15
69879;BME280;57161;43.136;24.706;2023-01-01T07:01:28;100674.56;;;5.78;73.91
69879;BME280;57161;43.136;24.706;2023-01-01T07:03:56;100691.84;;;5.97;74.19
69879;BME280;57161;43.136;24.706;2023-01-01T07:06:22;100694.75;;;6.03;74.00
69879;BME280;57161;43.136;24.706;2023-01-01T07:08:49;100661.50;;;5.93;73.93
69879;BME280;57161;43.136;24.706;2023-01-01T07:11:15;100693.88;;;6.26;73.75
69879;BME280;57161;43.136;24.706;2023-01-01T07:13:41;100692.66;;;6.42;73.70
69879;BME280;57161;43.136;24.706;2023-01-01T07:16:06;100653.28;;;6.14;73.24
69879;BME280;57161;43.136;24.706;2023-01-01T07:18:32;100683.84;;;6.43;72.57
69879;BME280;57161;43.136;24.706;2023-01-01T07:20:59;100696.53;;;6.65;72.53
69879;BME280;57161;43.136;24.706;2023-01-01T07:23:27;100677.03;;;6.59;72.32
69879;BME280;57161;43.136;24.706;2023-01-01T07:25:53;100684.94;;;6.66;72.04
69879;BME280;57161;43.136;24.706;2023-01-01T07:28:20;100698.22;;;6.91;71.69
69879;BME280;57161;43.136;24.706;2023-01-01T07:30:46;100687.59;;;6.90;71.52
69879;BME280;57161;43.136;24.706;2023-01-01T07:33:14;100683.75;;;7.02;71.10
69879;BME280;57161;43.136;24.706;2023-01-01T07:35:40;100695.44;;;7.27;70.77
69879;BME280;57161;43.136;24.706;2023-01-01T07:38:06;100645.78;;;6.99;70.72
69879;BME280;57161;43.136;24.706;2023-01-01T07:40:31;100636.91;;;7.15;70.30
69879;BME280;57161;43.136;24.706;2023-01-01T07:42:57;100657.91;;;7.37;69.94
69879;BME280;57161;43.136;24.706;2023-01-01T07:45:23;100706.16;;;7.74;69.83
69879;BME280;57161;43.136;24.706;2023-01-01T07:47:52;100701.75;;;7.88;69.80
69879;BME280;57161;43.136;24.706;2023-01-01T07:50:18;100670.34;;;7.82;69.74
69879;BME280;57161;43.136;24.706;2023-01-01T07:52:44;100716.34;;;8.29;69.30
69879;BME280;57161;43.136;24.706;2023-01-01T07:55:15;100711.84;;;8.58;68.41
69879;BME280;57161;43.136;24.706;2023-01-01T07:57:42;100712.47;;;8.73;67.84
69879;BME280;57161;43.136;24.706;2023-01-01T08:00:10;100716.13;;;8.90;67.40
69879;BME280;57161;43.136;24.706;2023-01-01T08:02:36;100668.63;;;8.73;66.70
69879;BME280;57161;43.136;24.706;2023-01-01T08:05:01;100704.94;;;9.22;66.09
69879;BME280;57161;43.136;24.706;2023-01-01T08:07:27;100688.72;;;9.26;65.45
69879;BME280;57161;43.136;24.706;2023-01-01T08:09:52;100707.44;;;9.62;65.09
69879;BME280;57161;43.136;24.706;2023-01-01T08:12:18;100715.63;;;9.83;64.21
69879;BME280;57161;43.136;24.706;2023-01-01T08:14:43;100670.41;;;9.73;63.69
69879;BME280;57161;43.136;24.706;2023-01-01T08:17:09;100654.69;;;9.76;63.49
69879;BME280;57161;43.136;24.706;2023-01-01T08:19:34;100715.53;;;10.26;63.14
69879;BME280;57161;43.136;24.706;2023-01-01T08:22:00;100622.75;;;9.77;62.48
69879;BME280;57161;43.136;24.706;2023-01-01T08:24:25;100718.56;;;10.33;62.62
69879;BME280;57161;43.136;24.706;2023-01-01T08:26:51;100655.78;;;9.95;62.43
69879;BME280;57161;43.136;24.706;2023-01-01T08:29:16;100700.28;;;10.27;62.35
69879;BME280;57161;43.136;24.706;2023-01-01T08:31:42;100719.84;;;10.38;62.67
69879;BME280;57161;43.136;24.706;2023-01-01T08:34:08;100729.50;;;10.48;62.33
69879;BME280;57161;43.136;24.706;2023-01-01T08:36:33;100710.72;;;10.48;62.38
69879;BME280;57161;43.136;24.706;2023-01-01T08:38:59;100718.84;;;10.63;62.38
69879;BME280;57161;43.136;24.706;2023-01-01T08:41:24;100694.97;;;10.62;61.74
69879;BME280;57161;43.136;24.706;2023-01-01T08:43:50;100715.28;;;10.79;61.56
69879;BME280;57161;43.136;24.706;2023-01-01T08:46:15;100731.53;;;11.03;61.40
69879;BME280;57161;43.136;24.706;2023-01-01T08:48:41;100723.16;;;11.09;61.48
69879;BME280;57161;43.136;24.706;2023-01-01T08:51:08;100692.88;;;11.02;61.03
69879;BME280;57161;43.136;24.706;2023-01-01T08:53:34;100700.22;;;11.27;60.58
69879;BME280;57161;43.136;24.706;2023-01-01T08:56:02;100725.03;;;11.64;60.25
69879;BME280;57161;43.136;24.706;2023-01-01T08:58:32;100726.78;;;11.79;59.89
69879;BME280;57161;43.136;24.706;2023-01-01T09:00:57;100699.03;;;11.81;58.53
69879;BME280;57161;43.136;24.706;2023-01-01T09:03:24;100705.34;;;11.92;58.14
69879;BME280;57161;43.136;24.706;2023-01-01T09:05:50;100714.53;;;12.28;57.45
69879;BME280;57161;43.136;24.706;2023-01-01T09:08:15;100712.44;;;12.40;56.86
69879;BME280;57161;43.136;24.706;2023-01-01T09:10:41;100699.84;;;12.52;56.73
69879;BME280;57161;43.136;24.706;2023-01-01T09:13:11;100705.06;;;12.67;56.09
69879;BME280;57161;43.136;24.706;2023-01-01T09:15:37;100677.31;;;12.63;56.19
69879;BME280;57161;43.136;24.706;2023-01-01T09:18:03;100687.09;;;12.81;55.89
69879;BME280;57161;43.136;24.706;2023-01-01T09:20:29;100684.00;;;12.85;55.94
69879;BME280;57161;43.136;24.706;2023-01-01T09:22:54;100688.81;;;12.90;56.01
69879;BME280;57161;43.136;24.706;2023-01-01T09:25:20;100667.47;;;12.81;55.95
69879;BME280;57161;43.136;24.706;2023-01-01T09:27:46;100680.34;;;12.96;55.97
69879;BME280;57161;43.136;24.706;2023-01-01T09:30:11;100650.59;;;12.87;55.55
69879;BME280;57161;43.136;24.706;2023-01-01T09:32:37;100647.91;;;13.00;55.42
69879;BME280;57161;43.136;24.706;2023-01-01T09:35:03;100651.56;;;13.19;55.27
69879;BME280;57161;43.136;24.706;2023-01-01T09:37:29;100658.28;;;13.35;54.87
69879;BME280;57161;43.136;24.706;2023-01-01T09:39:55;100632.81;;;13.28;54.52
69879;BME280;57161;43.136;24.706;2023-01-01T09:49:54;100665.13;;;13.77;53.73
69879;BME280;57161;43.136;24.706;2023-01-01T09:52:21;100665.81;;;13.84;53.48
69879;BME280;57161;43.136;24.706;2023-01-01T09:54:51;100681.50;;;14.11;53.09
69879;BME280;57161;43.136;24.706;2023-01-01T09:57:23;100669.88;;;14.20;52.78
69879;BME280;57161;43.136;24.706;2023-01-01T09:59:51;100676.09;;;14.32;52.63
69879;BME280;57161;43.136;24.706;2023-01-01T10:05:30;100678.69;;;14.62;51.61
69879;BME280;57161;43.136;24.706;2023-01-01T10:10:39;100669.13;;;14.84;50.95
69879;BME280;57161;43.136;24.706;2023-01-01T10:13:26;100672.94;;;14.99;50.76
69879;BME280;57161;43.136;24.706;2023-01-01T10:18:35;100643.16;;;15.04;50.03
69879;BME280;57161;43.136;24.706;2023-01-01T10:21:11;100667.31;;;15.39;49.41
69879;BME280;57161;43.136;24.706;2023-01-01T10:23:42;100653.56;;;15.36;49.63
69879;BME280;57161;43.136;24.706;2023-01-01T10:26:14;100663.94;;;15.54;49.30
69879;BME280;57161;43.136;24.706;2023-01-01T10:28:48;100661.88;;;15.68;49.07
69879;BME280;57161;43.136;24.706;2023-01-01T10:31:27;100636.88;;;15.64;48.61
69879;BME280;57161;43.136;24.706;2023-01-01T10:33:54;100624.09;;;15.63;47.94
69879;BME280;57161;43.136;24.706;2023-01-01T10:36:20;100642.31;;;15.96;47.13
69879;BME280;57161;43.136;24.706;2023-01-01T10:38:47;100645.94;;;16.04;46.98
69879;BME280;57161;43.136;24.706;2023-01-01T10:41:13;100646.25;;;16.14;46.71
69879;BME280;57161;43.136;24.706;2023-01-01T10:43:39;100643.91;;;16.26;46.71
69879;BME280;57161;43.136;24.706;2023-01-01T10:46:10;100613.16;;;16.14;46.23
69879;BME280;57161;43.136;24.706;2023-01-01T10:48:36;100616.94;;;16.38;46.05
69879;BME280;57161;43.136;24.706;2023-01-01T10:51:05;100574.91;;;16.06;45.87
69879;BME280;57161;43.136;24.706;2023-01-01T10:56:11;100619.75;;;16.59;46.10
69879;BME280;57161;43.136;24.706;2023-01-01T11:01:19;100584.31;;;16.50;45.48
69879;BME280;57161;43.136;24.706;2023-01-01T11:08:59;100616.91;;;17.08;44.50
69879;BME280;57161;43.136;24.706;2023-01-01T11:11:47;100610.75;;;17.17;44.83
69879;BME280;57161;43.136;24.706;2023-01-01T11:14:20;100602.13;;;17.23;44.77
69879;BME280;57161;43.136;24.706;2023-01-01T11:16:47;100597.03;;;17.21;44.59
69879;BME280;57161;43.136;24.706;2023-01-01T11:19:40;100590.47;;;17.26;44.16
69879;BME280;57161;43.136;24.706;2023-01-01T11:22:06;100596.16;;;17.34;44.54
69879;BME280;57161;43.136;24.706;2023-01-01T11:24:33;100572.41;;;17.29;43.95
69879;BME280;57161;43.136;24.706;2023-01-01T11:27:22;100587.75;;;17.49;44.55
69879;BME280;57161;43.136;24.706;2023-01-01T11:29:48;100580.22;;;17.52;43.97
69879;BME280;57161;43.136;24.706;2023-01-01T11:32:20;100583.81;;;17.60;44.44
69879;BME280;57161;43.136;24.706;2023-01-01T11:34:56;100581.97;;;17.70;44.11
69879;BME280;57161;43.136;24.706;2023-01-01T11:37:29;100574.81;;;17.69;44.43
69879;BME280;57161;43.136;24.706;2023-01-01T11:42:34;100571.31;;;17.91;43.61
69879;BME280;57161;43.136;24.706;2023-01-01T11:45:08;100555.44;;;17.88;43.46
69879;BME280;57161;43.136;24.706;2023-01-01T11:47:38;100567.72;;;17.98;43.51
69879;BME280;57161;43.136;24.706;2023-01-01T11:52:41;100577.19;;;18.09;43.89
69879;BME280;57161;43.136;24.706;2023-01-01T11:55:21;100568.13;;;18.10;43.54
69879;BME280;57161;43.136;24.706;2023-01-01T11:57:58;100571.13;;;18.12;43.33
69879;BME280;57161;43.136;24.706;2023-01-01T12:00:28;100552.25;;;17.99;43.73
69879;BME280;57161;43.136;24.706;2023-01-01T12:06:05;100560.56;;;18.20;43.48
69879;BME280;57161;43.136;24.706;2023-01-01T12:11:30;100549.25;;;18.20;43.27
69879;BME280;57161;43.136;24.706;2023-01-01T12:14:05;100547.56;;;18.17;43.22
69879;BME280;57161;43.136;24.706;2023-01-01T12:19:27;100552.84;;;18.28;42.54
69879;BME280;57161;43.136;24.706;2023-01-01T12:21:57;100541.91;;;18.17;42.76
69879;BME280;57161;43.136;24.706;2023-01-01T12:24:42;100545.66;;;18.35;42.37
69879;BME280;57161;43.136;24.706;2023-01-01T12:30:24;100531.34;;;18.33;42.56
69879;BME280;57161;43.136;24.706;2023-01-01T12:38:38;100535.28;;;18.60;42.35
69879;BME280;57161;43.136;24.706;2023-01-01T12:41:29;100515.66;;;18.47;42.52
69879;BME280;57161;43.136;24.706;2023-01-01T12:44:12;100540.94;;;18.68;42.43
69879;BME280;57161;43.136;24.706;2023-01-01T12:46:48;100540.19;;;18.68;42.74
69879;BME280;57161;43.136;24.706;2023-01-01T12:49:48;100542.84;;;18.73;42.53
69879;BME280;57161;43.136;24.706;2023-01-01T12:52:58;100537.94;;;18.74;41.94
69879;BME280;57161;43.136;24.706;2023-01-01T12:58:25;100534.09;;;18.86;42.44
69879;BME280;57161;43.136;24.706;2023-01-01T13:00:58;100510.94;;;18.73;41.99
69879;BME280;57161;43.136;24.706;2023-01-01T13:03:33;100536.75;;;18.92;41.92
69879;BME280;57161;43.136;24.706;2023-01-01T13:06:01;100540.47;;;19.02;42.04
69879;BME280;57161;43.136;24.706;2023-01-01T13:08:27;100533.69;;;19.05;41.56
69879;BME280;57161;43.136;24.706;2023-01-01T13:10:55;100551.13;;;19.74;40.35
69879;BME280;57161;43.136;24.706;2023-01-01T13:13:22;100545.97;;;20.30;39.31
69879;BME280;57161;43.136;24.706;2023-01-01T13:15:53;100532.53;;;20.31;39.25
69879;BME280;57161;43.136;24.706;2023-01-01T13:18:28;100537.19;;;20.19;39.22
69879;BME280;57161;43.136;24.706;2023-01-01T13:31:15;100538.28;;;19.73;41.17
69879;BME280;57161;43.136;24.706;2023-01-01T13:33:41;100539.59;;;19.72;41.67
69879;BME280;57161;43.136;24.706;2023-01-01T13:38:51;100538.28;;;19.73;42.10
69879;BME280;57161;43.136;24.706;2023-01-01T13:43:50;100544.13;;;19.75;42.83
69879;BME280;57161;43.136;24.706;2023-01-01T13:46:18;100526.59;;;19.69;42.92
69879;BME280;57161;43.136;24.706;2023-01-01T13:51:49;100545.03;;;19.78;43.21
69879;BME280;57161;43.136;24.706;2023-01-01T13:57:01;100541.59;;;19.55;43.45
69879;BME280;57161;43.136;24.706;2023-01-01T14:02:27;100546.63;;;19.24;43.97
69879;BME280;57161;43.136;24.706;2023-01-01T14:05:05;100550.28;;;19.01;44.31
69879;BME280;57161;43.136;24.706;2023-01-01T14:07:38;100547.16;;;18.74;44.51
69879;BME280;57161;43.136;24.706;2023-01-01T14:13:16;100539.84;;;18.10;45.88
69879;BME280;57161;43.136;24.706;2023-01-01T14:15:55;100541.88;;;17.79;46.55
69879;BME280;57161;43.136;24.706;2023-01-01T14:18:55;100544.63;;;17.64;47.14
69879;BME280;57161;43.136;24.706;2023-01-01T14:21:21;100537.78;;;17.36;47.43
69879;BME280;57161;43.136;24.706;2023-01-01T14:23:49;100526.00;;;17.09;47.90
69879;BME280;57161;43.136;24.706;2023-01-01T14:26:17;100533.47;;;16.99;48.13
69879;BME280;57161;43.136;24.706;2023-01-01T14:28:44;100553.56;;;16.88;48.57
69879;BME280;57161;43.136;24.706;2023-01-01T14:31:18;100537.38;;;16.60;48.84
69879;BME280;57161;43.136;24.706;2023-01-01T14:33:45;100548.81;;;16.55;49.14
69879;BME280;57161;43.136;24.706;2023-01-01T14:36:19;100538.53;;;16.36;49.66
69879;BME280;57161;43.136;24.706;2023-01-01T14:38:47;100553.13;;;16.27;49.81
69879;BME280;57161;43.136;24.706;2023-01-01T14:44:02;100549.06;;;15.94;50.34
69879;BME280;57161;43.136;24.706;2023-01-01T14:46:29;100546.03;;;15.71;50.84
69879;BME280;57161;43.136;24.706;2023-01-01T14:49:02;100553.31;;;15.67;51.11